Time;durP1;ratioP1;P1;durP2;ratioP2;P2;SDS_P1;SDS_P2;PMS_P1;PMS_P2;Temp;Humidity;BMP_temperature;BMP_pressure;BME280_temperature;BME280_humidity;BME280_pressure;Samples;Min_cycle;Max_cycle;Signal;HPM_P1;HPM_P2
2021/05/27 00:00:51;;;;;;;2.97;1.30;;;6.70;98.00;;;;;;4792338;29;20055;-82
2021/05/27 00:03:19;;;;;;;2.88;1.40;;;6.70;98.00;;;;;;4798617;29;20043;-82
2021/05/27 00:05:51;;;;;;;3.58;1.63;;;6.70;98.00;;;;;;4768045;29;1201442;-84
2021/05/27 00:08:18;;;;;;;1.98;1.00;;;6.70;98.00;;;;;;4807944;29;20070;-81
2021/05/27 00:10:45;;;;;;;3.55;2.00;;;6.70;98.00;;;;;;4807099;29;20109;-82
2021/05/27 00:13:16;;;;;;;3.45;1.38;;;6.80;98.00;;;;;;4798978;29;20276;-83
2021/05/27 00:15:43;;;;;;;2.78;0.85;;;6.70;98.00;;;;;;4795994;29;20401;-82
2021/05/27 00:18:13;;;;;;;3.38;1.50;;;6.70;98.00;;;;;;4807634;29;20270;-80
2021/05/27 00:20:41;;;;;;;3.08;1.35;;;6.70;98.10;;;;;;4798767;29;20116;-81
2021/05/27 00:23:14;;;;;;;3.17;1.23;;;6.70;98.00;;;;;;4790065;29;20047;-81
2021/05/27 00:25:42;;;;;;;1.65;0.93;;;6.70;98.10;;;;;;4785431;29;20115;-80
2021/05/27 00:28:09;;;;;;;2.38;1.52;;;6.70;98.10;;;;;;4800866;29;20312;-81
2021/05/27 00:30:37;;;;;;;3.55;2.03;;;6.80;98.10;;;;;;4773340;29;20058;-80
2021/05/27 00:33:11;;;;;;;4.28;1.75;;;6.80;98.10;;;;;;4804774;29;20067;-81
2021/05/27 00:35:42;;;;;;;3.83;1.25;;;6.90;98.10;;;;;;4813619;29;20051;-81
2021/05/27 00:38:09;;;;;;;4.00;1.70;;;6.90;98.10;;;;;;4815466;29;20047;-80
2021/05/27 00:40:37;;;;;;;4.82;1.83;;;6.90;98.10;;;;;;4813644;29;20059;-82
2021/05/27 00:43:05;;;;;;;2.30;1.10;;;6.90;98.10;;;;;;4808862;29;20487;-81
2021/05/27 00:45:32;;;;;;;6.13;1.42;;;7.00;98.10;;;;;;4808934;29;20047;-81
2021/05/27 00:48:01;;;;;;;3.95;1.35;;;7.10;98.10;;;;;;4806917;29;20546;-81
2021/05/27 00:50:29;;;;;;;2.95;1.17;;;7.10;98.10;;;;;;4810830;29;20057;-81
2021/05/27 00:52:59;;;;;;;3.85;1.58;;;7.20;98.10;;;;;;4794601;29;20051;-82
2021/05/27 00:55:28;;;;;;;5.88;1.50;;;7.20;98.10;;;;;;4810813;29;20321;-82
2021/05/27 00:57:55;;;;;;;6.55;3.35;;;7.30;98.10;;;;;;4799797;29;20281;-82
2021/05/27 01:00:26;;;;;;;3.33;1.50;;;7.30;98.10;;;;;;4792025;29;20066;-83
2021/05/27 01:02:54;;;;;;;6.38;1.95;;;7.30;98.10;;;;;;4817946;29;20059;-81
2021/05/27 01:05:22;;;;;;;2.70;1.10;;;7.40;98.10;;;;;;4807121;29;20054;-82
2021/05/27 01:07:52;;;;;;;3.50;1.70;;;7.40;98.10;;;;;;4810423;29;20123;-85
2021/05/27 01:10:23;;;;;;;3.83;1.40;;;7.50;98.10;;;;;;4815478;29;20079;-82
2021/05/27 01:12:50;;;;;;;2.53;1.08;;;7.60;98.10;;;;;;4800454;29;20366;-83
2021/05/27 01:15:31;;;;;;;2.47;1.13;;;7.70;98.10;;;;;;4775528;29;20070;-82
2021/05/27 01:17:59;;;;;;;;;;;7.70;98.10;;;;;;4785293;29;20082;-81
2021/05/27 01:20:31;;;;;;;2.97;1.23;;;7.70;98.10;;;;;;4809017;29;19925;-83
2021/05/27 01:23:01;;;;;;;4.28;1.63;;;7.70;98.10;;;;;;4797002;29;20095;-82
2021/05/27 01:25:31;;;;;;;1.95;1.23;;;7.70;98.10;;;;;;4814958;29;20054;-83
2021/05/27 01:27:58;;;;;;;4.32;1.33;;;7.70;98.00;;;;;;4799495;29;20059;-83
2021/05/27 01:30:25;;;;;;;3.50;1.40;;;7.80;98.00;;;;;;4800053;29;20050;-85
2021/05/27 01:32:52;;;;;;;2.40;1.30;;;7.80;98.00;;;;;;4809743;29;20069;-86
2021/05/27 01:35:22;;;;;;;3.42;1.63;;;7.90;98.00;;;;;;4808887;29;20121;-84
2021/05/27 01:37:49;;;;;;;3.35;1.52;;;8.00;98.00;;;;;;4799677;29;20047;-84
2021/05/27 01:40:20;;;;;;;4.10;1.80;;;8.00;98.00;;;;;;4813685;29;20059;-83
2021/05/27 01:42:50;;;;;;;4.97;1.88;;;8.00;97.90;;;;;;4810174;29;20338;-82
2021/05/27 01:45:18;;;;;;;3.40;1.55;;;8.00;97.90;;;;;;4803288;29;20223;-82
2021/05/27 01:47:45;;;;;;;4.03;1.70;;;8.10;97.90;;;;;;4803008;29;20129;-83
2021/05/27 01:50:20;;;;;;;5.57;1.80;;;8.10;97.80;;;;;;4788752;29;20074;-83
2021/05/27 01:52:56;;;;;;;6.88;1.60;;;8.10;97.70;;;;;;4801264;29;20092;-82
2021/05/27 01:55:27;;;;;;;3.88;1.50;;;8.10;97.50;;;;;;4802579;29;20054;-82
2021/05/27 01:57:55;;;;;;;3.33;1.42;;;8.20;97.30;;;;;;4801655;29;20059;-83
2021/05/27 02:00:27;;;;;;;5.32;1.40;;;8.20;97.00;;;;;;4807357;29;20537;-83
2021/05/27 02:02:56;;;;;;;4.85;1.58;;;8.20;96.70;;;;;;4816832;29;20059;-83
2021/05/27 02:05:27;;;;;;;5.70;1.38;;;8.20;96.10;;;;;;4817365;29;20104;-82
2021/05/27 02:07:57;;;;;;;5.10;1.38;;;8.40;95.90;;;;;;4790338;29;20076;-83
2021/05/27 02:10:40;;;;;;;2.92;1.33;;;8.40;96.00;;;;;;4809802;29;20051;-81
2021/05/27 02:13:09;;;;;;;4.57;1.60;;;8.40;96.10;;;;;;4814521;29;20053;-82
2021/05/27 02:15:36;;;;;;;4.00;1.67;;;8.40;96.10;;;;;;4813994;29;20043;-83
2021/05/27 02:18:10;;;;;;;3.10;1.83;;;8.30;96.10;;;;;;4799549;29;20253;-83
2021/05/27 02:20:39;;;;;;;3.70;1.77;;;8.40;96.00;;;;;;4802758;29;20250;-83
2021/05/27 02:23:06;;;;;;;3.47;1.48;;;8.40;95.80;;;;;;4813431;29;20075;-84
2021/05/27 02:25:46;;;;;;;6.07;1.52;;;8.30;95.50;;;;;;4798436;29;20066;-82
2021/05/27 02:28:34;;;;;;;4.20;1.95;;;8.40;95.60;;;;;;4776393;29;20568;-84
2021/05/27 02:31:04;;;;;;;4.93;2.08;;;8.30;95.40;;;;;;4794171;29;20353;-82
2021/05/27 02:33:37;;;;;;;3.08;1.67;;;8.40;95.50;;;;;;4806462;29;20057;-83
2021/05/27 02:36:18;;;;;;;4.05;1.83;;;8.40;95.50;;;;;;4806469;29;20238;-83
2021/05/27 02:38:46;;;;;;;4.07;1.60;;;8.40;95.50;;;;;;4795261;29;20051;-82
2021/05/27 02:41:20;;;;;;;4.68;1.90;;;8.40;95.30;;;;;;4809852;29;20062;-83
2021/05/27 02:43:50;;;;;;;3.20;1.33;;;8.40;95.30;;;;;;4807606;29;20055;-82
2021/05/27 02:46:20;;;;;;;5.37;1.90;;;8.50;95.10;;;;;;4791176;29;20245;-84
2021/05/27 02:48:55;;;;;;;3.30;1.83;;;8.50;94.80;;;;;;4805763;29;20063;-84
2021/05/27 02:51:24;;;;;;;4.18;1.90;;;8.50;94.80;;;;;;4794783;29;20054;-85
2021/05/27 02:53:52;;;;;;;7.07;1.65;;;8.50;94.30;;;;;;4807595;29;20085;-85
2021/05/27 02:56:21;;;;;;;5.72;1.95;;;8.60;93.50;;;;;;4796946;29;20073;-84
2021/05/27 02:58:50;;;;;;;5.70;1.80;;;8.60;93.80;;;;;;4797599;29;20061;-85
2021/05/27 03:01:17;;;;;;;4.22;1.77;;;8.60;93.70;;;;;;4806689;29;20085;-86
2021/05/27 03:03:50;;;;;;;4.95;2.20;;;8.70;93.80;;;;;;4805471;29;20063;-86
2021/05/27 03:06:18;;;;;;;2.83;1.60;;;8.60;93.90;;;;;;4780296;29;20067;-84
2021/05/27 03:08:48;;;;;;;5.63;2.47;;;8.70;94.00;;;;;;4778861;29;20061;-86
2021/05/27 03:11:17;;;;;;;3.60;1.42;;;8.70;93.80;;;;;;4799188;29;20066;-85
2021/05/27 03:13:48;;;;;;;5.07;1.80;;;8.70;93.30;;;;;;4771580;29;20054;-84
2021/05/27 03:16:18;;;;;;;3.40;1.65;;;8.70;93.20;;;;;;4797517;29;20077;-85
2021/05/27 03:18:49;;;;;;;6.75;1.67;;;8.70;93.40;;;;;;4791788;29;20089;-86
2021/05/27 03:21:17;;;;;;;9.75;2.25;;;8.70;93.50;;;;;;4801429;29;20067;-85
2021/05/27 03:23:44;;;;;;;3.25;1.95;;;8.70;93.50;;;;;;4807596;29;20054;-85
2021/05/27 03:26:14;;;;;;;4.07;1.75;;;8.60;93.50;;;;;;4807690;29;20061;-85
2021/05/27 03:28:44;;;;;;;3.88;2.25;;;8.70;93.50;;;;;;4801896;29;20134;-85
2021/05/27 03:31:17;;;;;;;3.92;1.90;;;8.70;93.70;;;;;;4800682;29;20059;-86
2021/05/27 03:33:46;;;;;;;6.38;1.85;;;8.70;93.70;;;;;;4795533;29;20223;-85
2021/05/27 03:36:13;;;;;;;4.60;1.60;;;8.60;93.20;;;;;;4798952;29;20059;-85
2021/05/27 03:38:47;;;;;;;4.97;1.98;;;8.70;93.70;;;;;;4799326;29;20074;-84
2021/05/27 03:41:15;;;;;;;4.15;1.52;;;8.70;93.80;;;;;;4799466;29;20377;-83
2021/05/27 03:43:44;;;;;;;6.28;2.17;;;8.60;93.30;;;;;;4798128;29;20203;-84
2021/05/27 03:46:17;;;;;;;5.03;1.88;;;8.70;93.80;;;;;;4810735;29;20051;-84
2021/05/27 03:48:45;;;;;;;5.78;2.10;;;8.70;93.80;;;;;;4796725;29;20058;-85
2021/05/27 03:51:12;;;;;;;4.53;1.80;;;8.70;93.80;;;;;;4798024;29;20063;-84
2021/05/27 03:53:42;;;;;;;4.63;2.20;;;8.80;94.00;;;;;;4795850;29;20732;-84
2021/05/27 03:56:11;;;;;;;5.60;1.80;;;8.70;93.70;;;;;;4800644;29;20055;-84
2021/05/27 04:01:34;;;;;;;5.30;2.20;;;8.80;93.30;;;;;;4810618;29;20059;-86
2021/05/27 04:07:09;;;;;;;5.70;2.15;;;8.90;93.50;;;;;;4801055;29;20122;-85
2021/05/27 04:09:36;;;;;;;4.38;1.85;;;8.80;93.50;;;;;;4786378;29;20134;-84
2021/05/27 04:17:40;;;;;;;8.95;2.13;;;8.90;93.40;;;;;;4795673;29;20047;-84
2021/05/27 04:20:09;;;;;;;5.55;2.40;;;8.90;93.60;;;;;;4800288;29;20110;-86
2021/05/27 04:22:36;;;;;;;7.38;2.38;;;8.90;93.60;;;;;;4783505;29;20055;-84
2021/05/27 04:25:03;;;;;;;4.45;2.00;;;8.90;93.50;;;;;;4777044;29;20067;-85
2021/05/27 04:27:31;;;;;;;7.07;2.35;;;9.00;93.20;;;;;;4782159;29;20055;-84
2021/05/27 04:30:12;;;;;;;8.70;2.08;;;9.10;93.20;;;;;;4801571;29;20055;-84
2021/05/27 04:32:59;;;;;;;;;;;9.10;93.00;;;;;;4801357;29;20077;-86
2021/05/27 04:35:31;;;;;;;4.20;1.98;;;9.10;92.80;;;;;;4766514;29;19952;-84
2021/05/27 04:38:02;;;;;;;3.63;2.08;;;9.20;92.80;;;;;;4767151;29;20042;-83
2021/05/27 04:40:33;;;;;;;6.30;2.35;;;9.20;92.70;;;;;;4798744;29;20051;-84
2021/05/27 04:43:00;;;;;;;6.45;2.67;;;9.20;92.80;;;;;;4779931;29;20108;-85
2021/05/27 04:45:31;;;;;;;5.80;2.58;;;9.20;92.40;;;;;;4800401;29;20114;-86
2021/05/27 04:47:59;;;;;;;6.82;3.17;;;9.20;92.60;;;;;;4791171;29;20059;-84
2021/05/27 04:50:26;;;;;;;4.13;2.45;;;9.20;92.50;;;;;;4799970;29;20046;-84
2021/05/27 04:52:54;;;;;;;4.72;2.70;;;9.20;92.10;;;;;;4788975;29;20066;-84
2021/05/27 04:55:21;;;;;;;4.97;2.70;;;9.30;91.90;;;;;;4799121;29;20082;-85
2021/05/27 04:57:49;;;;;;;8.57;3.55;;;9.20;91.30;;;;;;4799055;29;20073;-84
2021/05/27 05:00:18;;;;;;;5.90;3.22;;;9.20;91.60;;;;;;4791840;29;20055;-84
2021/05/27 05:02:45;;;;;;;5.47;3.07;;;9.30;91.50;;;;;;4798654;29;20062;-83
2021/05/27 05:05:15;;;;;;;7.65;3.30;;;9.20;91.00;;;;;;4797207;29;20075;-83
2021/05/27 05:07:45;;;;;;;7.63;2.80;;;9.30;90.80;;;;;;4813440;29;20055;-86
2021/05/27 05:10:16;;;;;;;6.80;3.38;;;9.30;90.30;;;;;;4785038;29;20071;-87
2021/05/27 05:12:49;;;;;;;;;;;9.30;90.20;;;;;;4792850;29;20099;-84
2021/05/27 05:15:18;;;;;;;4.38;2.17;;;9.30;90.50;;;;;;4813831;29;19921;-87
2021/05/27 05:17:49;;;;;;;9.35;3.47;;;9.20;90.90;;;;;;4795260;29;20035;-87
2021/05/27 05:20:18;;;;;;;6.93;3.15;;;9.30;90.30;;;;;;4795945;29;20063;-85
2021/05/27 05:22:45;;;;;;;6.25;3.33;;;9.30;91.00;;;;;;4810232;29;20123;-85
2021/05/27 05:25:13;;;;;;;6.70;2.63;;;9.30;90.80;;;;;;4816973;29;20055;-84
2021/05/27 05:27:43;;;;;;;5.72;2.78;;;9.30;90.60;;;;;;4812964;29;20130;-85
2021/05/27 05:30:14;;;;;;;5.82;2.42;;;9.30;90.20;;;;;;4816841;29;20104;-87
2021/05/27 05:32:42;;;;;;;9.63;3.00;;;9.30;90.50;;;;;;4798354;29;20059;-83
2021/05/27 05:35:11;;;;;;;8.57;2.97;;;9.40;90.30;;;;;;4811548;29;20059;-84
2021/05/27 05:37:41;;;;;;;11.57;2.90;;;9.40;90.00;;;;;;4809328;29;20386;-84
2021/05/27 05:40:12;;;;;;;5.88;3.17;;;9.40;90.20;;;;;;4794155;29;20235;-86
2021/05/27 05:42:40;;;;;;;5.80;2.97;;;9.50;90.40;;;;;;4800480;29;20342;-85
2021/05/27 05:45:09;;;;;;;4.88;2.47;;;9.50;90.10;;;;;;4795152;29;20059;-84
2021/05/27 05:47:37;;;;;;;5.25;2.97;;;9.50;89.40;;;;;;4810092;29;20195;-84
2021/05/27 05:50:06;;;;;;;5.68;2.78;;;9.50;89.90;;;;;;4783626;29;20081;-85
2021/05/27 05:52:37;;;;;;;5.55;3.03;;;9.60;89.70;;;;;;4799221;29;20067;-85
2021/05/27 05:55:11;;;;;;;5.32;2.95;;;9.60;89.80;;;;;;4794550;29;20082;-85
2021/05/27 05:57:42;;;;;;;8.98;3.22;;;9.60;89.10;;;;;;4815365;29;20081;-87
2021/05/27 06:00:11;;;;;;;6.38;2.78;;;9.60;89.00;;;;;;4796670;29;20143;-85
2021/05/27 06:02:47;;;;;;;10.88;3.03;;;9.50;88.80;;;;;;4778440;29;20051;-85
2021/05/27 06:05:29;;;;;;;5.00;2.85;;;9.60;89.30;;;;;;4795645;29;20050;-87
2021/05/27 06:08:03;;;;;;;5.13;2.55;;;9.60;89.20;;;;;;4791976;29;20058;-83
2021/05/27 06:10:34;;;;;;;11.02;3.15;;;9.60;89.20;;;;;;4799149;29;20078;-84
2021/05/27 06:13:03;;;;;;;7.82;2.85;;;9.60;89.40;;;;;;4777645;29;20425;-85
2021/05/27 06:15:32;;;;;;;5.88;2.78;;;9.70;89.10;;;;;;4781645;29;20055;-86
2021/05/27 06:18:00;;;;;;;5.38;2.92;;;9.70;88.60;;;;;;4775864;29;20062;-85
2021/05/27 06:20:30;;;;;;;5.80;2.45;;;9.70;88.80;;;;;;4798337;29;20118;-86
2021/05/27 06:23:01;;;;;;;7.30;3.10;;;9.70;88.10;;;;;;4799133;29;20063;-85
2021/05/27 06:25:31;;;;;;;6.13;2.42;;;9.70;88.50;;;;;;4798071;29;20051;-86
2021/05/27 06:28:02;;;;;;;8.65;2.90;;;9.70;88.20;;;;;;4799258;29;20282;-87
2021/05/27 06:30:29;;;;;;;5.40;2.50;;;9.70;87.80;;;;;;4793197;29;20047;-84
2021/05/27 06:32:58;;;;;;;8.38;2.90;;;9.60;87.90;;;;;;4798918;29;20054;-86
2021/05/27 06:35:25;;;;;;;9.50;2.78;;;9.60;87.70;;;;;;4794730;29;20166;-85
2021/05/27 06:37:59;;;;;;;9.35;3.38;;;9.70;87.80;;;;;;4798927;29;20051;-85
2021/05/27 06:40:27;;;;;;;5.22;3.10;;;9.70;87.40;;;;;;4799367;29;21226;-85
2021/05/27 06:42:55;;;;;;;6.20;2.97;;;9.70;87.30;;;;;;4796792;29;20153;-85
2021/05/27 06:45:26;;;;;;;6.32;2.70;;;9.70;87.70;;;;;;4798035;29;20243;-84
2021/05/27 06:47:54;;;;;;;9.80;3.92;;;9.70;87.10;;;;;;4789255;29;20254;-87
2021/05/27 06:50:35;;;;;;;6.63;2.78;;;9.70;87.60;;;;;;4796694;29;20087;-86
2021/05/27 06:53:06;;;;;;;4.82;2.92;;;9.80;87.50;;;;;;4799195;29;20067;-85
2021/05/27 06:55:35;;;;;;;6.05;2.50;;;9.80;87.70;;;;;;4795997;29;20065;-85
2021/05/27 06:58:05;;;;;;;5.13;2.67;;;9.70;87.50;;;;;;4796306;29;20093;-86
2021/05/27 07:00:34;;;;;;;5.30;2.43;;;9.80;87.40;;;;;;4778950;29;20050;-85
2021/05/27 07:03:01;;;;;;;5.88;2.92;;;9.80;87.00;;;;;;4795784;29;20250;-87
2021/05/27 07:05:31;;;;;;;6.95;2.90;;;9.90;86.80;;;;;;4802013;29;20059;-84
2021/05/27 07:07:59;;;;;;;5.88;2.70;;;9.90;86.60;;;;;;4806204;29;20074;-85
2021/05/27 07:10:26;;;;;;;5.45;2.97;;;9.90;86.80;;;;;;4793137;29;20652;-84
2021/05/27 07:12:55;;;;;;;7.65;2.70;;;9.80;87.30;;;;;;4799228;29;20351;-86
2021/05/27 07:15:26;;;;;;;8.65;3.45;;;9.80;86.90;;;;;;4795196;29;20057;-85
2021/05/27 07:17:57;;;;;;;7.85;2.80;;;9.80;87.20;;;;;;4796644;29;20069;-88
2021/05/27 07:20:26;;;;;;;4.82;2.97;;;9.80;86.90;;;;;;4809163;29;20059;-84
2021/05/27 07:22:53;;;;;;;7.38;3.80;;;9.80;87.60;;;;;;4807027;29;20863;-85
2021/05/27 07:25:22;;;;;;;5.57;2.95;;;9.90;87.20;;;;;;4816840;29;20120;-85
2021/05/27 07:28:04;;;;;;;5.15;2.97;;;9.90;86.70;;;;;;4808788;29;20118;-85
2021/05/27 07:30:34;;;;;;;9.23;2.40;;;9.90;86.90;;;;;;4797193;29;20073;-84
2021/05/27 07:33:03;;;;;;;4.60;2.78;;;10.00;87.00;;;;;;4799224;29;20177;-85
2021/05/27 07:35:30;;;;;;;8.20;2.92;;;10.00;86.60;;;;;;4806280;29;20069;-87
2021/05/27 07:37:59;;;;;;;12.52;3.28;;;10.00;86.20;;;;;;4813466;29;20055;-85
2021/05/27 07:40:26;;;;;;;8.88;3.33;;;10.00;86.10;;;;;;4793433;29;20067;-89
2021/05/27 07:42:54;;;;;;;6.95;2.80;;;10.10;86.50;;;;;;4801096;29;20062;-87
2021/05/27 07:45:21;;;;;;;5.00;3.22;;;10.10;85.30;;;;;;4789696;29;20059;-85
2021/05/27 07:47:49;;;;;;;6.63;2.70;;;10.20;85.80;;;;;;4806995;29;20107;-86
2021/05/27 07:50:20;;;;;;;5.85;3.35;;;10.30;85.00;;;;;;4808538;29;20058;-85
2021/05/27 07:52:48;;;;;;;7.80;4.05;;;10.30;85.00;;;;;;4798560;29;20054;-84
2021/05/27 07:55:15;;;;;;;5.63;2.88;;;10.30;84.90;;;;;;4798141;29;20051;-84
2021/05/27 07:57:42;;;;;;;7.07;2.83;;;10.20;84.60;;;;;;4793273;29;23364;-85
2021/05/27 08:00:13;;;;;;;7.18;3.78;;;10.20;85.00;;;;;;4808401;29;20066;-83
2021/05/27 08:02:42;;;;;;;7.47;3.22;;;10.30;84.90;;;;;;4797717;29;20066;-85
2021/05/27 08:05:10;;;;;;;5.72;2.92;;;10.20;84.80;;;;;;4789197;29;20063;-84
2021/05/27 08:07:38;;;;;;;8.48;3.58;;;10.20;84.80;;;;;;4790520;29;20047;-84
2021/05/27 08:10:06;;;;;;;5.68;3.15;;;10.20;85.10;;;;;;4798173;29;20115;-87
2021/05/27 08:12:33;;;;;;;5.15;2.85;;;10.30;85.20;;;;;;4792769;29;20066;-86
2021/05/27 08:15:05;;;;;;;9.50;3.42;;;10.40;84.60;;;;;;4798568;29;20047;-83
2021/05/27 08:17:32;;;;;;;5.50;2.53;;;10.50;84.20;;;;;;4792787;29;20132;-84
2021/05/27 08:19:59;;;;;;;11.27;3.55;;;10.50;84.10;;;;;;4798280;29;20135;-84
2021/05/27 08:22:30;;;;;;;6.50;3.00;;;10.50;84.00;;;;;;4797269;29;20067;-84
2021/05/27 08:24:58;;;;;;;11.40;2.90;;;10.60;84.50;;;;;;4800707;29;20342;-85
2021/05/27 08:27:25;;;;;;;7.15;2.92;;;10.60;85.00;;;;;;4799758;29;20108;-84
2021/05/27 08:29:53;;;;;;;5.40;3.10;;;10.80;83.80;;;;;;4805855;29;20067;-84
2021/05/27 08:32:21;;;;;;;7.75;3.60;;;10.90;83.10;;;;;;4798787;29;20073;-86
2021/05/27 08:34:48;;;;;;;9.32;3.55;;;10.90;83.10;;;;;;4796875;29;20051;-85
2021/05/27 08:37:19;;;;;;;7.00;3.08;;;10.90;83.50;;;;;;4798939;29;20058;-84
2021/05/27 08:39:48;;;;;;;5.20;2.97;;;10.90;83.20;;;;;;4800324;29;20238;-85
2021/05/27 08:42:16;;;;;;;5.63;2.75;;;10.90;83.20;;;;;;4798729;29;20116;-85
2021/05/27 08:44:50;;;;;;;6.13;3.08;;;10.90;83.20;;;;;;4807441;29;20413;-86
2021/05/27 08:47:18;;;;;;;6.78;2.90;;;11.00;83.30;;;;;;4807831;29;20082;-84
2021/05/27 08:49:50;;;;;;;5.65;3.15;;;10.90;83.10;;;;;;4800149;29;20067;-84
2021/05/27 08:52:21;;;;;;;9.45;3.40;;;10.90;83.30;;;;;;4804289;29;20089;-87
2021/05/27 08:54:48;;;;;;;5.82;2.97;;;10.90;83.20;;;;;;4820393;29;20070;-85
2021/05/27 08:57:19;;;;;;;5.53;2.65;;;11.00;82.50;;;;;;4810645;29;20050;-87
2021/05/27 08:59:46;;;;;;;5.95;2.78;;;11.10;82.50;;;;;;4801883;29;20067;-85
2021/05/27 09:02:13;;;;;;;7.47;3.88;;;11.30;81.50;;;;;;4799183;29;20280;-86
2021/05/27 09:04:40;;;;;;;5.00;2.67;;;11.50;81.60;;;;;;4771625;29;20059;-84
2021/05/27 09:07:14;;;;;;;4.53;2.08;;;11.60;81.30;;;;;;518305;29;10023244;-85
2021/05/27 09:09:50;;;;;;;7.53;3.05;;;11.80;81.20;;;;;;4794837;29;20273;-84
2021/05/27 09:12:36;;;;;;;7.72;3.10;;;11.70;80.40;;;;;;4795631;29;20067;-84
2021/05/27 09:15:05;;;;;;;10.30;2.92;;;11.80;81.10;;;;;;4801464;29;20138;-84
2021/05/27 09:17:44;;;;;;;7.57;3.55;;;12.10;81.00;;;;;;4805742;29;20043;-86
2021/05/27 09:20:19;;;;;;;8.80;3.38;;;12.20;80.70;;;;;;4809491;29;20097;-85
2021/05/27 09:22:47;;;;;;;5.43;3.08;;;12.50;80.20;;;;;;4810879;29;20070;-86
2021/05/27 09:25:26;;;;;;;10.52;2.85;;;12.60;79.00;;;;;;4793778;29;20118;-84
2021/05/27 09:27:54;;;;;;;5.43;2.88;;;12.90;80.00;;;;;;4799739;29;20304;-86
2021/05/27 09:30:23;;;;;;;5.82;3.13;;;12.60;78.90;;;;;;4783294;29;20070;-84
2021/05/27 09:32:52;;;;;;;7.25;3.22;;;12.60;78.50;;;;;;4784080;29;20070;-84
2021/05/27 09:35:19;;;;;;;9.30;3.05;;;12.70;80.20;;;;;;4771233;29;20051;-84
2021/05/27 09:37:48;;;;;;;4.97;2.70;;;12.70;78.80;;;;;;4790712;29;20107;-85
2021/05/27 09:40:31;;;;;;;5.03;3.00;;;12.80;79.10;;;;;;4793388;29;20055;-85
2021/05/27 09:43:00;;;;;;;7.68;2.17;;;12.70;78.20;;;;;;4783623;29;20122;-85
2021/05/27 09:45:34;;;;;;;5.85;2.85;;;13.00;77.40;;;;;;4804947;29;20236;-85
2021/05/27 09:48:19;;;;;;;7.82;2.97;;;13.10;78.30;;;;;;4798038;29;20055;-84
2021/05/27 09:50:47;;;;;;;5.53;3.00;;;13.40;76.40;;;;;;4803372;29;20311;-85
2021/05/27 09:53:16;;;;;;;6.35;3.22;;;13.70;76.10;;;;;;4804933;29;20249;-84
2021/05/27 09:55:45;;;;;;;10.70;3.38;;;13.60;76.20;;;;;;4789591;29;20047;-85
2021/05/27 09:58:17;;;;;;;5.18;2.65;;;13.70;76.20;;;;;;4790779;29;20047;-84
2021/05/27 10:00:45;;;;;;;5.05;2.67;;;14.20;74.80;;;;;;4800143;29;20063;-85
2021/05/27 10:03:31;;;;;;;6.63;3.38;;;14.10;74.00;;;;;;4790660;29;20065;-85
2021/05/27 10:06:00;;;;;;;6.25;2.83;;;14.10;74.60;;;;;;4798404;29;20392;-84
2021/05/27 10:08:47;;;;;;;7.05;2.60;;;14.30;74.20;;;;;;4810104;29;20063;-86
2021/05/27 10:11:16;;;;;;;8.32;2.72;;;14.50;72.50;;;;;;4804969;29;20066;-85
2021/05/27 10:13:44;;;;;;;6.35;2.80;;;14.60;73.10;;;;;;4802274;29;20063;-85
2021/05/27 10:16:14;;;;;;;6.38;2.80;;;14.30;72.70;;;;;;4802185;29;20502;-85
2021/05/27 10:18:41;;;;;;;11.30;3.07;;;14.60;72.40;;;;;;4815741;29;20047;-83
2021/05/27 10:21:10;;;;;;;8.38;2.88;;;14.30;72.40;;;;;;4802709;29;20067;-88
2021/05/27 10:23:37;;;;;;;6.45;3.08;;;14.50;72.90;;;;;;4793341;29;20142;-85
2021/05/27 10:26:05;;;;;;;4.93;2.55;;;14.50;73.90;;;;;;4798981;29;20059;-84
2021/05/27 10:28:33;;;;;;;6.55;2.83;;;14.00;75.70;;;;;;4814154;29;20074;-87
2021/05/27 10:31:03;;;;;;;5.13;2.83;;;13.70;76.00;;;;;;4803491;29;20055;-85
2021/05/27 10:33:37;;;;;;;5.38;2.35;;;13.70;75.90;;;;;;4800498;29;20327;-86
2021/05/27 10:36:06;;;;;;;5.32;2.60;;;14.30;75.30;;;;;;4804897;29;20048;-84
2021/05/27 10:38:58;;;;;;;5.38;2.47;;;15.00;72.60;;;;;;4811998;29;20088;-88
2021/05/27 10:42:02;;;;;;;7.35;2.33;;;15.50;71.10;;;;;;4796798;29;20082;-85
2021/05/27 10:44:31;;;;;;;5.38;2.50;;;15.20;72.10;;;;;;4813486;29;20055;-83
2021/05/27 10:47:09;;;;;;;6.07;2.72;;;14.70;71.10;;;;;;4791373;29;20081;-85
2021/05/27 10:49:58;;;;;;;5.90;2.28;;;14.30;73.60;;;;;;4802376;29;20066;-84
2021/05/27 10:52:36;;;;;;;4.85;2.42;;;14.10;73.10;;;;;;4798426;29;20279;-87
2021/05/27 10:55:42;;;;;;;5.22;2.58;;;13.90;75.30;;;;;;4813616;29;20342;-86
2021/05/27 10:58:11;;;;;;;6.25;3.00;;;14.20;76.10;;;;;;4773701;29;20059;-85
2021/05/27 11:00:54;;;;;;;6.13;2.75;;;13.50;76.60;;;;;;4805268;29;20164;-84
2021/05/27 11:03:49;;;;;;;5.18;2.47;;;13.60;78.30;;;;;;4801954;29;20075;-85
2021/05/27 11:06:20;;;;;;;14.57;4.75;;;13.70;76.70;;;;;;4806502;29;20067;-87
2021/05/27 11:08:48;;;;;;;7.95;2.85;;;13.40;78.10;;;;;;4806673;29;20047;-84
2021/05/27 11:11:41;;;;;;;6.00;2.83;;;13.30;79.40;;;;;;4806882;29;20184;-85
2021/05/27 11:14:19;;;;;;;5.68;2.63;;;13.10;79.10;;;;;;4802620;29;20157;-85
2021/05/27 11:17:17;;;;;;;4.55;2.30;;;12.80;79.80;;;;;;4790333;29;20259;-84
2021/05/27 11:19:50;;;;;;;5.65;2.70;;;12.80;80.80;;;;;;4805171;29;20059;-85
2021/05/27 11:22:46;;;;;;;4.38;2.70;;;12.90;80.70;;;;;;4801683;29;20106;-85
2021/05/27 11:25:25;;;;;;;8.13;3.60;;;12.60;84.40;;;;;;4800431;29;20059;-84
2021/05/27 11:27:57;;;;;;;7.38;2.75;;;12.00;88.00;;;;;;4798327;29;20043;-84
2021/05/27 11:30:26;;;;;;;8.18;3.15;;;11.70;89.30;;;;;;4800004;29;20063;-84
2021/05/27 11:32:57;;;;;;;9.30;3.47;;;11.80;89.70;;;;;;4800947;29;20138;-84
2021/05/27 11:35:29;;;;;;;5.05;2.95;;;12.20;88.40;;;;;;4783519;29;20078;-85
2021/05/27 11:37:57;;;;;;;7.53;2.78;;;12.60;88.20;;;;;;4797953;29;20066;-84
2021/05/27 11:40:30;;;;;;;7.95;3.13;;;12.60;85.70;;;;;;4799207;29;20070;-83
2021/05/27 11:42:57;;;;;;;7.60;2.97;;;12.70;85.70;;;;;;4805840;29;20258;-84
2021/05/27 11:45:28;;;;;;;6.38;2.58;;;12.70;85.70;;;;;;4794886;29;20054;-86
2021/05/27 11:48:15;;;;;;;;;;;12.60;85.40;;;;;;4794031;29;20059;-86
2021/05/27 11:50:49;;;;;;;8.27;2.67;;;12.60;86.30;;;;;;4798026;29;20001;-85
2021/05/27 11:53:21;;;;;;;7.10;3.10;;;12.50;87.20;;;;;;4800476;29;20078;-86
2021/05/27 11:56:07;;;;;;;6.07;2.57;;;12.60;85.40;;;;;;4801786;29;20134;-84
2021/05/27 11:58:38;;;;;;;7.28;2.90;;;12.90;85.20;;;;;;4785807;29;20073;-86
2021/05/27 12:01:21;;;;;;;6.40;2.70;;;12.80;84.20;;;;;;4776360;29;20127;-86
2021/05/27 12:04:20;;;;;;;6.10;2.35;;;12.90;85.20;;;;;;4798035;29;20062;-85
2021/05/27 12:06:58;;;;;;;4.53;2.40;;;12.70;84.80;;;;;;4750835;30;20065;-83
2021/05/27 12:09:28;;;;;;;7.57;2.72;;;12.40;87.60;;;;;;4765352;29;20111;-85
2021/05/27 12:11:55;;;;;;;3.23;1.43;;;12.10;89.50;;;;;;4797704;29;20063;-83
2021/05/27 12:14:25;;;;;;;4.45;1.98;;;11.60;90.10;;;;;;4800087;29;20316;-86
2021/05/27 12:16:54;;;;;;;2.88;1.35;;;11.40;91.50;;;;;;4764033;29;20066;-87
2021/05/27 12:19:22;;;;;;;2.58;1.60;;;11.40;92.20;;;;;;4791492;29;20048;-86
2021/05/27 12:21:55;;;;;;;2.20;1.00;;;11.60;92.70;;;;;;4792466;29;20077;-85
2021/05/27 12:24:25;;;;;;;2.55;0.93;;;11.60;91.90;;;;;;4800230;29;20082;-86
2021/05/27 12:26:55;;;;;;;4.22;1.65;;;11.70;91.20;;;;;;4803194;29;20055;-84
2021/05/27 12:29:24;;;;;;;2.30;1.08;;;11.90;89.40;;;;;;4799426;29;21723;-82
2021/05/27 12:31:52;;;;;;;3.33;1.13;;;11.80;87.10;;;;;;4801461;29;20061;-86
2021/05/27 12:34:21;;;;;;;2.30;0.95;;;12.10;87.30;;;;;;4806117;29;20063;-84
2021/05/27 12:37:00;;;;;;;1.58;1.00;;;12.30;86.10;;;;;;4813991;29;20261;-84
2021/05/27 12:39:37;;;;;;;4.05;0.90;;;12.60;84.30;;;;;;4790645;29;20051;-84
2021/05/27 12:42:07;;;;;;;2.40;1.08;;;12.60;83.30;;;;;;4795720;29;20054;-85
2021/05/27 12:44:42;;;;;;;2.03;1.00;;;12.70;84.80;;;;;;4785231;29;20078;-85
2021/05/27 12:47:14;;;;;;;2.38;1.00;;;12.90;83.20;;;;;;4796828;29;20050;-84
2021/05/27 12:49:45;;;;;;;3.13;0.90;;;12.80;83.10;;;;;;4797167;29;20063;-84
2021/05/27 12:52:17;;;;;;;1.77;0.82;;;12.80;83.10;;;;;;4794356;29;20051;-84
2021/05/27 12:54:46;;;;;;;3.95;1.00;;;12.70;83.40;;;;;;4801091;29;20081;-84
2021/05/27 12:57:13;;;;;;;2.42;1.05;;;12.60;83.90;;;;;;4783893;29;20051;-84
2021/05/27 12:59:56;;;;;;;2.22;1.10;;;12.60;83.30;;;;;;4784474;29;20282;-87
2021/05/27 13:02:33;;;;;;;3.85;1.50;;;12.60;84.40;;;;;;4791230;29;20081;-84
2021/05/27 13:05:14;;;;;;;2.30;1.08;;;12.80;84.10;;;;;;4805850;29;20220;-84
2021/05/27 13:07:54;;;;;;;1.33;0.73;;;13.30;81.70;;;;;;4802661;29;20323;-86
2021/05/27 13:10:32;;;;;;;2.25;1.00;;;13.70;81.40;;;;;;4805543;29;20059;-85
2021/05/27 13:13:02;;;;;;;3.83;1.50;;;14.10;80.60;;;;;;4816304;29;20251;-85
2021/05/27 13:15:39;;;;;;;2.25;1.13;;;13.90;79.80;;;;;;4810956;29;20051;-85
2021/05/27 13:18:12;;;;;;;2.03;0.90;;;14.00;80.50;;;;;;4804241;29;20054;-85
2021/05/27 13:21:13;;;;;;;2.40;1.10;;;14.00;81.00;;;;;;4806689;29;20055;-84
2021/05/27 13:23:44;;;;;;;2.78;1.40;;;13.60;80.40;;;;;;4802985;29;20055;-86
2021/05/27 13:26:16;;;;;;;2.58;1.10;;;13.60;81.20;;;;;;4803669;29;20063;-87